Time;durP1;ratioP1;P1;durP2;ratioP2;P2;SDS_P1;SDS_P2;PMS_P1;PMS_P2;Temp;Humidity;BMP_temperature;BMP_pressure;BME280_temperature;BME280_humidity;BME280_pressure;Samples;Min_cycle;Max_cycle;Signal;HPM_P1;HPM_P2
2021/04/21 00:01:02;;;;;;;10.80;9.80;;;10.40;35.70;;;;;;10473182;28;20266;-72
2021/04/21 00:06:07;;;;;;;10.70;9.70;;;10.30;36.00;;;;;;10475647;28;20643;-72
2021/04/21 00:11:10;;;;;;;9.80;8.80;;;10.30;36.00;;;;;;10474335;28;20317;-71
2021/04/21 00:16:14;;;;;;;11.00;10.00;;;10.30;35.90;;;;;;10473402;28;20324;-72
2021/04/21 00:21:17;;;;;;;11.27;9.97;;;10.20;36.00;;;;;;10479858;28;20229;-72
2021/04/21 00:26:23;;;;;;;11.90;10.70;;;10.20;35.90;;;;;;10479075;28;20250;-72
2021/04/21 00:31:27;;;;;;;11.60;10.50;;;10.20;36.00;;;;;;10480292;28;20317;-71
2021/04/21 00:36:34;;;;;;;10.07;9.10;;;10.20;35.90;;;;;;10483618;28;20303;-71
2021/04/21 00:41:45;;;;;;;11.40;10.37;;;10.10;35.70;;;;;;10484035;28;20659;-70
2021/04/21 00:46:57;;;;;;;9.97;9.07;;;10.00;35.80;;;;;;10483226;28;20303;-71
2021/04/21 00:52:05;;;;;;;9.80;8.90;;;9.90;37.00;;;;;;10470888;28;20558;-70
2021/04/21 00:57:13;;;;;;;12.77;11.37;;;9.90;37.10;;;;;;10471945;28;20674;-69
2021/04/21 01:02:22;;;;;;;12.67;11.47;;;9.90;37.10;;;;;;10480199;28;20719;-70
2021/04/21 01:07:26;;;;;;;13.10;11.80;;;9.70;36.80;;;;;;10479821;28;20224;-70
2021/04/21 01:12:31;;;;;;;12.03;10.83;;;9.60;36.90;;;;;;10470784;28;20659;-70
2021/04/21 01:17:37;;;;;;;13.33;12.13;;;9.50;36.90;;;;;;10473092;28;20320;-70
2021/04/21 01:23:13;;;;;;;13.40;12.13;;;9.40;37.10;;;;;;10477624;28;20696;-70
2021/04/21 01:28:22;;;;;;;13.63;12.17;;;9.20;37.70;;;;;;10479402;28;20250;-70
2021/04/21 01:33:27;;;;;;;13.77;12.33;;;9.00;37.90;;;;;;10466923;28;20315;-70
2021/04/21 01:38:30;;;;;;;11.60;10.50;;;8.80;37.90;;;;;;10472552;28;21554;-71
2021/04/21 01:43:37;;;;;;;11.13;10.03;;;8.80;37.90;;;;;;10477614;28;20251;-71
2021/04/21 01:48:42;;;;;;;11.20;10.10;;;8.80;37.90;;;;;;10477717;28;20732;-71
2021/04/21 01:53:51;;;;;;;12.33;11.13;;;8.80;37.60;;;;;;10467771;28;20311;-72
2021/04/21 01:59:02;;;;;;;9.33;8.53;;;8.80;37.40;;;;;;10473964;28;20303;-72
2021/04/21 02:04:13;;;;;;;11.87;10.70;;;8.70;37.60;;;;;;10480750;28;20693;-71
2021/04/21 02:09:57;;;;;;;12.30;11.10;;;8.70;37.80;;;;;;10470442;28;20328;-71
2021/04/21 02:15:08;;;;;;;9.53;8.63;;;8.60;38.00;;;;;;10465378;28;20219;-72
2021/04/21 02:20:19;;;;;;;10.63;9.73;;;8.60;37.90;;;;;;10479419;28;20588;-72
2021/04/21 02:25:32;;;;;;;12.20;11.03;;;8.60;37.80;;;;;;10488884;28;20289;-71
2021/04/21 02:30:41;;;;;;;12.70;11.50;;;8.60;37.80;;;;;;10482439;28;20650;-71
2021/04/21 02:35:48;;;;;;;12.90;11.70;;;8.60;38.00;;;;;;10481414;28;20328;-70
2021/04/21 02:41:07;;;;;;;11.30;10.20;;;8.60;37.90;;;;;;10481856;28;20720;-70
2021/04/21 02:46:18;;;;;;;12.00;10.90;;;8.50;38.10;;;;;;10476023;28;20267;-70
2021/04/21 02:51:27;;;;;;;10.10;9.20;;;8.50;38.10;;;;;;10479256;28;20240;-70
2021/04/21 02:56:39;;;;;;;11.67;10.67;;;8.50;37.90;;;;;;10476438;28;20307;-70
2021/04/21 03:01:51;;;;;;;11.23;10.20;;;8.50;37.90;;;;;;10486111;28;20224;-70
2021/04/21 03:06:56;;;;;;;11.60;10.50;;;8.50;37.90;;;;;;10484596;28;20225;-70
2021/04/21 03:12:00;;;;;;;10.33;9.43;;;8.50;37.60;;;;;;10477795;28;20228;-70
2021/04/21 03:17:09;;;;;;;9.07;8.27;;;8.40;37.50;;;;;;10470230;28;20244;-70
2021/04/21 03:22:14;;;;;;;11.60;10.60;;;8.40;38.00;;;;;;10490446;28;20236;-70
2021/04/21 03:27:20;;;;;;;11.30;10.20;;;8.30;37.50;;;;;;10482121;28;20221;-70
2021/04/21 03:32:28;;;;;;;10.90;9.90;;;8.30;37.50;;;;;;10478642;28;20249;-70
2021/04/21 03:37:40;;;;;;;10.43;9.53;;;8.20;37.60;;;;;;10476926;28;20275;-70
2021/04/21 03:42:43;;;;;;;12.20;11.10;;;8.20;37.70;;;;;;10484692;28;20228;-70
2021/04/21 03:47:46;;;;;;;11.97;10.87;;;8.10;37.20;;;;;;10484064;28;20299;-70
2021/04/21 03:52:53;;;;;;;11.17;10.17;;;8.00;37.20;;;;;;10479208;28;20771;-70
2021/04/21 03:57:58;;;;;;;10.23;9.33;;;7.90;37.60;;;;;;10479730;28;20311;-70
2021/04/21 04:03:04;;;;;;;11.10;10.10;;;7.90;37.90;;;;;;10480238;28;20315;-72
2021/04/21 04:08:10;;;;;;;12.47;11.27;;;7.90;37.90;;;;;;10503228;22;20222;-74
2021/04/21 04:13:13;;;;;;;13.73;11.90;;;7.90;37.90;;;;;;10477992;28;20295;-74
2021/04/21 04:18:16;;;;;;;11.83;10.73;;;7.90;37.70;;;;;;10477474;28;20220;-74
2021/04/21 04:23:20;;;;;;;13.30;12.00;;;7.90;37.80;;;;;;10463505;28;20303;-74
2021/04/21 04:28:27;;;;;;;12.30;11.17;;;7.90;37.60;;;;;;10471640;28;20230;-74
2021/04/21 04:33:31;;;;;;;12.67;11.47;;;7.90;37.70;;;;;;10470950;28;20700;-74
2021/04/21 04:38:34;;;;;;;14.63;13.33;;;7.90;37.60;;;;;;10465856;28;20320;-74
2021/04/21 04:43:39;;;;;;;16.93;15.40;;;7.80;37.60;;;;;;10476941;28;20239;-74
2021/04/21 04:48:46;;;;;;;15.40;13.93;;;7.80;37.60;;;;;;10468313;28;20220;-74
2021/04/21 04:53:50;;;;;;;16.07;14.57;;;7.80;38.00;;;;;;10474313;28;20729;-74
2021/04/21 04:58:55;;;;;;;16.90;15.30;;;7.80;37.70;;;;;;10475953;28;20216;-74
2021/04/21 05:04:00;;;;;;;15.00;13.53;;;7.70;38.00;;;;;;10464223;28;20307;-74
2021/04/21 05:09:04;;;;;;;15.63;14.20;;;7.70;38.10;;;;;;10477818;28;20308;-74
2021/04/21 05:14:11;;;;;;;17.57;15.83;;;7.70;38.30;;;;;;10477327;28;20299;-73
2021/04/21 05:19:55;;;;;;;15.40;14.03;;;7.70;39.00;;;;;;10467308;28;20307;-73
2021/04/21 05:25:30;;;;;;;13.37;12.07;;;7.70;39.00;;;;;;10457082;28;20238;-74
2021/04/21 05:31:15;;;;;;;14.70;13.20;;;7.70;39.00;;;;;;10464008;28;20231;-73
2021/04/21 05:37:39;;;;;;;14.00;12.60;;;7.70;39.00;;;;;;10454986;28;20230;-73
2021/04/21 05:43:28;;;;;;;16.57;14.97;;;7.60;38.90;;;;;;10465487;28;20263;-73
2021/04/21 05:49:15;;;;;;;15.47;13.97;;;7.60;39.50;;;;;;10474690;28;20647;-73
2021/04/21 05:55:02;;;;;;;15.30;13.80;;;7.60;40.20;;;;;;10465528;28;20228;-72
2021/04/21 06:00:23;;;;;;;17.87;15.97;;;7.60;40.80;;;;;;10463038;28;20251;-72
2021/04/21 06:05:25;;;;;;;23.20;20.70;;;7.60;41.30;;;;;;10464685;28;20244;-72
2021/04/21 06:10:30;;;;;;;18.27;16.40;;;7.70;40.40;;;;;;10455703;28;20251;-73
2021/04/21 06:15:36;;;;;;;19.90;17.77;;;7.80;41.40;;;;;;10459935;28;20252;-73
2021/04/21 06:20:40;;;;;;;18.93;17.07;;;8.00;41.40;;;;;;10470288;28;20221;-74
2021/04/21 06:25:48;;;;;;;20.80;18.60;;;8.20;41.60;;;;;;10474748;28;20266;-73
2021/04/21 06:31:02;;;;;;;20.77;18.70;;;8.40;41.90;;;;;;10474341;28;20301;-74
2021/04/21 06:36:06;;;;;;;23.30;20.87;;;8.50;41.70;;;;;;10466138;28;20311;-74
2021/04/21 06:41:09;;;;;;;23.20;20.90;;;8.70;41.90;;;;;;10468704;28;20308;-74
2021/04/21 06:46:11;;;;;;;23.40;20.90;;;8.90;42.30;;;;;;10473374;28;20244;-74
2021/04/21 06:51:14;;;;;;;23.23;20.73;;;9.10;41.90;;;;;;10477447;28;20221;-75
2021/04/21 06:56:24;;;;;;;26.00;23.20;;;9.30;42.10;;;;;;10459859;28;20307;-73
2021/04/21 07:01:28;;;;;;;25.13;22.57;;;9.40;42.50;;;;;;10470819;28;20245;-73
2021/04/21 07:06:30;;;;;;;27.17;24.37;;;9.70;42.40;;;;;;10473021;28;20224;-75
2021/04/21 07:11:33;;;;;;;27.00;24.10;;;9.80;42.40;;;;;;10463915;28;20723;-73
2021/04/21 07:16:39;;;;;;;29.37;26.27;;;10.00;42.00;;;;;;10477123;28;20303;-73
2021/04/21 07:21:42;;;;;;;27.37;23.87;;;10.20;41.90;;;;;;10474181;28;20860;-73
2021/04/21 07:26:47;;;;;;;28.93;25.93;;;10.50;42.20;;;;;;10473571;28;20244;-73
2021/04/21 07:31:50;;;;;;;28.80;25.70;;;10.70;42.70;;;;;;10484168;28;20264;-73
2021/04/21 07:36:55;;;;;;;28.83;25.87;;;11.00;42.70;;;;;;10477232;28;20224;-72
2021/04/21 07:41:58;;;;;;;27.97;25.00;;;11.30;42.60;;;;;;10482220;28;20307;-73
2021/04/21 07:47:11;;;;;;;28.37;24.97;;;11.50;42.60;;;;;;10469905;28;20798;-72
2021/04/21 07:52:25;;;;;;;29.33;26.33;;;11.80;43.30;;;;;;10471298;28;21271;-74
2021/04/21 07:57:28;;;;;;;27.83;25.03;;;12.10;43.80;;;;;;10475093;28;20304;-75
2021/04/21 08:02:33;;;;;;;27.83;24.90;;;12.40;42.80;;;;;;10471846;28;20274;-75
2021/04/21 08:07:39;;;;;;;28.13;25.13;;;12.70;42.90;;;;;;10477637;28;20231;-73
2021/04/21 08:12:42;;;;;;;28.57;25.63;;;13.00;42.60;;;;;;10478585;28;20278;-73
2021/04/21 08:17:56;;;;;;;26.97;24.20;;;13.30;42.80;;;;;;10474494;28;20312;-74
2021/04/21 08:23:00;;;;;;;27.07;24.33;;;13.60;43.10;;;;;;10460533;28;20279;-74
2021/04/21 08:28:05;;;;;;;28.30;25.17;;;13.90;42.60;;;;;;10466192;28;20267;-74
2021/04/21 08:33:07;;;;;;;29.20;26.17;;;14.20;42.40;;;;;;10466835;28;20315;-74
2021/04/21 08:38:10;;;;;;;27.87;24.90;;;14.50;42.30;;;;;;10467916;28;20328;-74
2021/04/21 08:43:15;;;;;;;28.90;26.00;;;14.90;42.20;;;;;;10470507;28;20239;-74
2021/04/21 08:48:18;;;;;;;27.87;25.07;;;15.20;41.50;;;;;;10468112;28;20248;-74
2021/04/21 08:53:22;;;;;;;25.33;22.70;;;15.50;41.30;;;;;;10456437;28;20328;-73
2021/04/21 08:58:25;;;;;;;25.60;23.07;;;15.90;40.90;;;;;;10470629;28;20220;-73
2021/04/21 09:03:28;;;;;;;25.10;22.60;;;16.20;40.20;;;;;;10461260;28;20255;-73
2021/04/21 09:08:31;;;;;;;23.93;21.43;;;16.40;39.80;;;;;;10460970;28;20236;-73
2021/04/21 09:13:34;;;;;;;25.53;22.87;;;16.70;39.50;;;;;;10459807;28;20300;-73
2021/04/21 09:18:37;;;;;;;24.27;21.83;;;17.00;38.90;;;;;;10464801;28;20242;-73
2021/04/21 09:23:41;;;;;;;24.30;21.77;;;17.20;38.40;;;;;;10471089;28;20261;-74
2021/04/21 09:28:46;;;;;;;22.23;20.00;;;17.40;38.40;;;;;;10455792;28;20335;-73
2021/04/21 09:34:07;;;;;;;21.27;19.07;;;17.70;38.00;;;;;;10478967;28;20329;-74
2021/04/21 09:39:14;;;;;;;18.07;16.27;;;17.90;35.00;;;;;;10467096;28;20216;-74
2021/04/21 09:44:20;;;;;;;19.87;17.77;;;18.00;34.70;;;;;;10471021;28;20331;-74
2021/04/21 09:49:33;;;;;;;14.33;13.03;;;18.10;35.90;;;;;;10467592;28;20700;-74
2021/04/21 09:54:37;;;;;;;16.80;15.20;;;18.20;34.90;;;;;;10469729;28;20251;-74
2021/04/21 09:59:57;;;;;;;16.53;14.93;;;18.40;35.60;;;;;;10469179;28;20216;-75
2021/04/21 10:05:26;;;;;;;12.97;11.77;;;18.60;33.90;;;;;;10464550;28;20232;-75
2021/04/21 10:10:29;;;;;;;13.43;12.23;;;18.70;32.60;;;;;;10464760;28;20256;-75
2021/04/21 10:15:33;;;;;;;16.57;15.07;;;18.80;34.60;;;;;;10466535;28;20311;-74
2021/04/21 10:20:35;;;;;;;16.60;14.90;;;18.90;33.60;;;;;;10463995;28;20685;-74
2021/04/21 10:25:39;;;;;;;14.67;13.37;;;19.10;34.20;;;;;;10469474;28;20315;-75
2021/04/21 10:30:42;;;;;;;15.03;13.63;;;19.30;34.10;;;;;;10461961;28;20235;-74
2021/04/21 10:35:44;;;;;;;14.47;13.00;;;19.40;33.30;;;;;;10462607;28;20236;-75
2021/04/21 10:40:46;;;;;;;15.13;13.77;;;19.60;34.00;;;;;;10470665;28;20266;-75
2021/04/21 10:45:53;;;;;;;15.47;14.07;;;19.70;34.20;;;;;;10466466;28;20297;-74
2021/04/21 10:50:55;;;;;;;14.83;13.43;;;19.80;32.00;;;;;;10475022;28;20249;-75
2021/04/21 10:56:17;;;;;;;14.23;12.83;;;19.80;32.30;;;;;;10482892;28;20256;-74
2021/04/21 11:01:34;;;;;;;15.77;14.33;;;19.90;32.30;;;;;;10475307;28;20220;-74
2021/04/21 11:06:47;;;;;;;15.33;13.73;;;19.90;28.80;;;;;;10473618;28;20271;-76
2021/04/21 11:11:54;;;;;;;15.63;14.13;;;19.90;29.60;;;;;;10477197;28;20221;-75
2021/04/21 11:17:05;;;;;;;15.57;14.27;;;19.70;31.30;;;;;;10482243;28;20301;-76
2021/04/21 11:22:27;;;;;;;15.03;13.53;;;19.60;30.00;;;;;;10480699;28;20580;-75
2021/04/21 11:27:41;;;;;;;15.83;14.23;;;19.50;28.50;;;;;;10481838;28;20220;-75
2021/04/21 11:32:44;;;;;;;15.93;14.43;;;19.40;29.40;;;;;;10477717;28;20579;-75
2021/04/21 11:37:48;;;;;;;7.20;6.50;;;19.20;30.00;;;;;;10469461;28;20230;-76
2021/04/21 11:42:50;;;;;;;8.30;7.37;;;19.10;29.60;;;;;;10478279;28;20220;-75
2021/04/21 11:47:56;;;;;;;8.00;7.37;;;18.90;29.30;;;;;;10476353;28;20240;-76
2021/04/21 11:53:01;;;;;;;6.97;6.37;;;18.70;28.90;;;;;;10474449;28;20818;-75
2021/04/21 11:58:07;;;;;;;5.20;4.80;;;18.60;28.50;;;;;;10470258;28;20304;-75
2021/04/21 12:03:16;;;;;;;4.40;4.00;;;18.40;27.70;;;;;;10472172;28;20229;-74
2021/04/21 12:08:20;;;;;;;4.23;3.93;;;18.20;26.00;;;;;;10474027;28;20333;-73
2021/04/21 12:13:28;;;;;;;4.40;4.00;;;18.10;28.20;;;;;;10472290;28;20716;-74
2021/04/21 12:18:34;;;;;;;5.63;5.13;;;18.00;27.90;;;;;;10473991;28;20775;-74
2021/04/21 12:23:37;;;;;;;6.07;5.53;;;18.00;28.50;;;;;;10472304;28;20233;-75
2021/04/21 12:28:47;;;;;;;5.87;4.67;;;18.10;28.70;;;;;;10469593;28;20235;-75
2021/04/21 12:33:53;;;;;;;4.87;4.40;;;18.20;27.90;;;;;;10472505;28;20239;-75
2021/04/21 12:39:05;;;;;;;5.83;4.87;;;18.30;28.80;;;;;;10469476;28;20233;-76
2021/04/21 12:44:16;;;;;;;5.47;5.03;;;18.50;27.30;;;;;;10476840;28;20299;-76
2021/04/21 12:49:32;;;;;;;5.43;4.97;;;18.60;28.00;;;;;;10468941;28;20225;-75
2021/04/21 12:54:36;;;;;;;6.00;5.43;;;18.90;27.60;;;;;;10479848;28;20311;-75
2021/04/21 12:59:43;;;;;;;8.03;7.33;;;19.10;28.40;;;;;;10458117;28;20584;-75
2021/04/21 13:04:48;;;;;;;8.73;7.93;;;19.20;27.80;;;;;;10474323;28;20846;-75
2021/04/21 13:09:51;;;;;;;9.23;8.20;;;19.30;28.00;;;;;;10464145;28;20232;-75
2021/04/21 13:14:53;;;;;;;8.03;7.30;;;19.40;28.10;;;;;;10466330;28;20294;-75
2021/04/21 13:19:58;;;;;;;7.57;6.90;;;19.30;28.30;;;;;;10469156;28;20647;-74
2021/04/21 13:25:09;;;;;;;7.67;6.97;;;19.40;28.10;;;;;;10471185;28;20311;-74
2021/04/21 13:30:14;;;;;;;8.37;7.67;;;19.40;27.20;;;;;;10470523;28;20315;-75
2021/04/21 13:35:20;;;;;;;8.87;8.07;;;19.40;28.00;;;;;;10457645;28;20232;-75
2021/04/21 13:40:23;;;;;;;9.20;8.40;;;19.50;27.40;;;;;;10463089;28;20243;-75
2021/04/21 13:45:25;;;;;;;9.47;8.57;;;19.60;28.10;;;;;;10466736;28;20232;-75
2021/04/21 13:50:28;;;;;;;9.60;8.70;;;19.70;27.70;;;;;;10467291;28;20279;-75
2021/04/21 13:55:31;;;;;;;8.23;7.53;;;19.70;27.60;;;;;;10462715;28;20315;-76
2021/04/21 14:00:33;;;;;;;8.27;7.57;;;19.70;27.70;;;;;;10465984;28;20222;-76
2021/04/21 14:05:37;;;;;;;8.37;7.67;;;19.70;27.70;;;;;;10466339;28;20318;-76
2021/04/21 14:10:40;;;;;;;7.40;6.70;;;19.80;27.00;;;;;;10465469;28;20296;-75
2021/04/21 14:15:42;;;;;;;7.70;7.00;;;19.80;26.90;;;;;;10464974;28;20224;-74
2021/04/21 14:20:45;;;;;;;6.87;6.27;;;19.80;26.70;;;;;;10469039;28;20610;-73
2021/04/21 14:25:48;;;;;;;5.40;4.90;;;19.80;26.40;;;;;;10473006;28;20242;-75
2021/04/21 14:30:50;;;;;;;5.43;4.97;;;19.90;27.10;;;;;;10474191;28;20224;-76
2021/04/21 14:35:53;;;;;;;6.10;5.53;;;19.80;26.60;;;;;;10466881;28;20644;-76
2021/04/21 14:40:56;;;;;;;7.53;6.80;;;19.70;25.90;;;;;;10472758;28;20312;-76
2021/04/21 14:45:58;;;;;;;7.80;7.10;;;19.60;26.30;;;;;;10477077;28;20224;-75
2021/04/21 14:51:01;;;;;;;7.63;6.43;;;19.50;26.30;;;;;;10472480;28;20231;-76
2021/04/21 14:56:04;;;;;;;7.20;6.60;;;19.40;26.20;;;;;;10466228;28;20575;-75
2021/04/21 15:01:08;;;;;;;5.73;5.23;;;19.20;26.10;;;;;;10470230;28;20324;-75
2021/04/21 15:06:11;;;;;;;6.53;5.93;;;19.10;26.30;;;;;;10475797;28;20388;-74
2021/04/21 15:11:32;;;;;;;6.27;5.67;;;19.10;26.00;;;;;;10472454;28;20232;-75
2021/04/21 15:16:34;;;;;;;6.40;5.90;;;19.10;26.20;;;;;;10476115;28;20282;-75
2021/04/21 15:21:38;;;;;;;7.13;6.47;;;18.90;25.90;;;;;;10470453;28;20224;-75
2021/04/21 15:26:41;;;;;;;5.90;5.37;;;18.90;25.90;;;;;;10470333;28;20248;-74
2021/04/21 15:31:45;;;;;;;4.30;3.90;;;18.70;26.30;;;;;;10469947;28;20228;-75
2021/04/21 15:36:48;;;;;;;3.20;2.93;;;18.60;25.90;;;;;;10476227;28;20228;-75
2021/04/21 15:41:50;;;;;;;3.40;2.70;;;18.40;26.00;;;;;;10471356;28;20631;-76
2021/04/21 15:46:53;;;;;;;4.10;3.00;;;18.20;26.40;;;;;;10465780;28;20316;-76
2021/04/21 15:51:57;;;;;;;3.23;2.93;;;18.10;26.60;;;;;;10466105;28;20224;-76
2021/04/21 15:57:01;;;;;;;5.70;3.17;;;18.00;27.00;;;;;;10470112;28;20785;-75
2021/04/21 16:02:04;;;;;;;4.13;3.73;;;18.00;27.20;;;;;;10486184;28;20217;-75
2021/04/21 16:07:07;;;;;;;3.57;3.33;;;18.00;27.30;;;;;;10492226;28;20717;-76
2021/04/21 16:12:10;;;;;;;3.90;3.57;;;18.00;27.20;;;;;;10481531;28;20301;-76
2021/04/21 16:17:12;;;;;;;3.23;3.03;;;18.10;27.30;;;;;;10490760;28;20320;-75
2021/04/21 16:22:16;;;;;;;4.90;4.37;;;18.10;27.40;;;;;;10458820;28;20316;-76
2021/04/21 16:27:18;;;;;;;4.60;4.20;;;18.20;27.50;;;;;;10479458;22;20263;-88
2021/04/21 16:32:27;;;;;;;7.00;5.83;;;18.30;27.60;;;;;;10454545;28;20225;-89
2021/04/21 16:37:31;;;;;;;5.73;5.10;;;18.30;27.10;;;;;;10476958;28;20228;-88
2021/04/21 16:42:35;;;;;;;5.50;5.00;;;18.40;27.60;;;;;;10495536;28;20239;-89
2021/04/21 16:47:45;;;;;;;5.60;5.10;;;18.50;27.40;;;;;;10496117;28;20730;-89
2021/04/21 16:52:53;;;;;;;5.50;5.00;;;18.60;26.90;;;;;;10486259;28;20300;-89
2021/04/21 16:58:44;;;;;;;5.77;5.07;;;18.70;27.20;;;;;;10425088;28;20221;-90
2021/04/21 17:03:51;;;;;;;5.30;4.90;;;18.80;26.70;;;;;;10413331;28;20236;-89
2021/04/21 17:09:02;;;;;;;5.47;5.07;;;18.90;27.10;;;;;;10444750;28;20308;-89
2021/04/21 17:14:05;;;;;;;6.33;5.73;;;19.00;26.90;;;;;;10458779;28;20256;-90
2021/04/21 17:19:11;;;;;;;6.17;5.67;;;19.00;27.10;;;;;;10490849;28;20232;-89
2021/04/21 17:37:56;;;;;;;5.53;5.03;;;18.60;26.50;;;;;;10301702;28;20263;-87
2021/04/21 17:43:20;;;;;;;4.97;4.57;;;18.30;26.40;;;;;;10401794;28;20576;-86
2021/04/21 17:48:30;;;;;;;4.77;4.40;;;18.10;26.60;;;;;;10417310;28;20237;-86
2021/04/21 17:53:40;;;;;;;4.50;4.10;;;17.90;26.60;;;;;;10448540;28;20603;-86
2021/04/21 17:58:56;;;;;;;4.33;3.90;;;17.70;26.90;;;;;;10441138;28;20220;-87
2021/04/21 18:04:30;;;;;;;5.07;4.67;;;17.50;26.80;;;;;;10441626;28;20712;-86
2021/04/21 18:10:02;;;;;;;;;;;;;;;;;;;;;
2021/04/21 18:15:12;;;;;;;4.80;4.43;;;17.30;27.20;;;;;;10442880;28;20724;-86
2021/04/21 18:20:42;;;;;;;5.07;4.67;;;17.30;27.20;;;;;;10474101;28;20242;-87
2021/04/21 18:25:51;;;;;;;5.10;4.70;;;17.10;27.20;;;;;;10454674;28;20657;-88
2021/04/21 18:31:11;;;;;;;4.97;4.50;;;17.10;27.30;;;;;;10446189;28;20617;-87
2021/04/21 18:41:50;;;;;;;4.83;4.37;;;16.90;27.40;;;;;;10429525;28;20224;-84
2021/04/21 18:46:56;;;;;;;4.57;4.10;;;16.80;27.40;;;;;;10437899;28;20705;-86
2021/04/21 18:51:59;;;;;;;5.60;5.10;;;16.80;27.50;;;;;;10407228;28;20224;-86
2021/04/21 18:57:03;;;;;;;6.90;6.20;;;16.70;27.60;;;;;;10412696;28;20575;-86
2021/04/21 19:02:07;;;;;;;6.63;6.03;;;16.70;27.60;;;;;;10419342;28;20222;-86
2021/04/21 19:07:09;;;;;;;6.83;5.73;;;16.60;27.60;;;;;;10427848;28;20217;-86
2021/04/21 19:12:14;;;;;;;5.10;4.60;;;16.60;27.70;;;;;;10413348;28;20229;-86
2021/04/21 19:17:17;;;;;;;5.30;4.87;;;16.50;27.70;;;;;;10397193;28;20787;-85
2021/04/21 19:22:19;;;;;;;6.13;5.53;;;16.30;27.50;;;;;;10424039;28;20523;-86
2021/04/21 19:27:24;;;;;;;5.77;5.27;;;16.40;27.70;;;;;;10437029;28;20290;-87
2021/04/21 19:32:28;;;;;;;5.97;5.47;;;16.20;27.50;;;;;;10442469;28;20713;-86
2021/04/21 19:37:32;;;;;;;11.23;10.03;;;16.00;27.60;;;;;;10441106;28;20232;-86
2021/04/21 19:42:35;;;;;;;11.13;10.03;;;15.80;27.60;;;;;;10433139;28;20229;-86
2021/04/21 19:47:42;;;;;;;7.97;6.40;;;15.50;27.70;;;;;;10485436;22;20245;-76
2021/04/21 19:52:45;;;;;;;6.67;6.07;;;15.20;27.90;;;;;;10478743;28;20229;-77
2021/04/21 19:57:47;;;;;;;7.53;6.83;;;15.00;28.10;;;;;;10482532;28;20224;-76
2021/04/21 20:02:51;;;;;;;7.03;6.43;;;14.80;28.30;;;;;;10474814;28;20322;-75
2021/04/21 20:07:53;;;;;;;7.80;6.37;;;14.60;28.40;;;;;;10485545;28;20224;-75
2021/04/21 20:12:57;;;;;;;7.43;6.73;;;14.50;28.60;;;;;;10465508;28;20723;-78
2021/04/21 20:18:00;;;;;;;8.10;7.40;;;14.40;29.00;;;;;;10472366;28;20312;-76
2021/04/21 20:23:03;;;;;;;6.73;6.03;;;14.40;29.00;;;;;;10449833;28;20220;-75
2021/04/21 20:28:06;;;;;;;8.50;7.60;;;14.50;29.00;;;;;;10461012;28;20301;-75
2021/04/21 20:33:13;;;;;;;8.07;7.37;;;14.50;29.10;;;;;;10450221;28;20259;-76
2021/04/21 20:38:16;;;;;;;8.07;7.27;;;14.50;29.60;;;;;;10458383;28;20236;-77
2021/04/21 20:43:18;;;;;;;6.83;6.23;;;14.40;29.00;;;;;;10484760;28;20281;-76
2021/04/21 20:48:21;;;;;;;6.30;5.80;;;14.30;28.80;;;;;;10481362;28;20716;-76
2021/04/21 20:53:23;;;;;;;5.90;5.40;;;14.30;29.00;;;;;;10488547;28;20247;-76
2021/04/21 20:58:26;;;;;;;5.60;5.10;;;14.10;29.60;;;;;;10475304;28;20252;-76
2021/04/21 21:03:29;;;;;;;6.90;6.30;;;14.10;29.20;;;;;;10479989;28;20224;-76
2021/04/21 21:08:31;;;;;;;6.60;6.00;;;14.10;29.40;;;;;;10477477;28;20315;-76
2021/04/21 21:13:34;;;;;;;6.67;6.13;;;14.10;29.30;;;;;;10481298;28;20315;-76
2021/04/21 21:18:37;;;;;;;6.87;6.00;;;14.00;29.40;;;;;;10476897;28;20236;-76
2021/04/21 21:23:40;;;;;;;7.00;6.40;;;14.00;29.50;;;;;;10479142;28;20339;-76
2021/04/21 21:28:42;;;;;;;6.40;5.80;;;14.00;30.10;;;;;;10478426;28;20248;-76
2021/04/21 21:33:46;;;;;;;6.20;5.60;;;14.00;29.60;;;;;;10484497;28;20244;-76
2021/04/21 21:38:48;;;;;;;6.47;5.83;;;13.90;29.70;;;;;;10486623;28;20319;-76
2021/04/21 21:43:51;;;;;;;7.87;6.90;;;13.90;29.60;;;;;;10479719;28;20633;-76
2021/04/21 21:48:54;;;;;;;7.07;6.33;;;13.80;29.50;;;;;;10488942;28;20281;-76
2021/04/21 21:53:56;;;;;;;8.40;7.60;;;13.60;29.70;;;;;;10477876;28;20224;-76
2021/04/21 21:58:59;;;;;;;8.27;7.47;;;13.50;29.70;;;;;;10480957;28;20247;-77
2021/04/21 22:04:02;;;;;;;7.73;6.97;;;13.40;29.90;;;;;;10485148;28;20224;-76
2021/04/21 22:09:07;;;;;;;7.53;6.73;;;13.30;30.20;;;;;;10480589;28;20254;-76
2021/04/21 22:14:09;;;;;;;8.10;7.30;;;13.10;30.50;;;;;;10489756;28;20223;-76
2021/04/21 22:19:13;;;;;;;7.67;6.90;;;13.10;30.50;;;;;;10478153;28;20328;-76
2021/04/21 22:24:18;;;;;;;6.83;6.13;;;13.00;30.40;;;;;;10479250;28;20247;-76
2021/04/21 22:29:21;;;;;;;8.50;7.70;;;13.00;30.40;;;;;;10473487;28;20256;-77
2021/04/21 22:34:24;;;;;;;8.07;7.37;;;13.10;30.40;;;;;;10469993;28;20240;-76
2021/04/21 22:39:26;;;;;;;8.00;7.30;;;13.10;30.40;;;;;;10487164;28;20303;-76
2021/04/21 22:44:28;;;;;;;7.37;6.67;;;13.10;30.40;;;;;;10489726;28;20286;-76
2021/04/21 22:49:32;;;;;;;6.70;5.97;;;13.00;30.40;;;;;;10476733;28;20252;-76
2021/04/21 22:54:34;;;;;;;7.67;6.97;;;12.90;30.40;;;;;;10497556;28;20664;-76
2021/04/21 22:59:36;;;;;;;7.50;6.73;;;12.90;30.30;;;;;;10485460;28;20236;-76
2021/04/21 23:04:39;;;;;;;8.20;7.40;;;13.00;30.50;;;;;;10492913;28;20244;-76
2021/04/21 23:09:45;;;;;;;6.63;6.13;;;13.00;30.70;;;;;;10484730;28;20243;-77
2021/04/21 23:14:48;;;;;;;7.80;7.10;;;13.00;30.40;;;;;;10494645;28;20238;-76
2021/04/21 23:19:51;;;;;;;8.23;7.53;;;13.00;30.40;;;;;;10488151;28;20251;-76
2021/04/21 23:24:53;;;;;;;8.03;7.40;;;13.00;30.40;;;;;;10487348;28;20229;-75
2021/04/21 23:29:55;;;;;;;6.50;5.90;;;13.00;30.40;;;;;;10483824;28;20224;-76
2021/04/21 23:34:58;;;;;;;7.33;6.73;;;13.00;30.40;;;;;;10489406;28;20587;-76
2021/04/21 23:40:01;;;;;;;7.87;7.17;;;12.90;30.30;;;;;;10484951;28;20220;-76
2021/04/21 23:45:04;;;;;;;8.40;7.53;;;12.90;30.30;;;;;;10488553;28;20220;-76
2021/04/21 23:50:11;;;;;;;8.47;7.77;;;12.80;30.20;;;;;;10488693;28;20307;-76
2021/04/21 23:55:16;;;;;;;8.13;7.33;;;12.80;30.90;;;;;;10489168;28;20697;-76
